sensor_id;sensor_type;location;lat;lon;timestamp;temperature;humidity
45945;DHT22;31655;48.972;10.686;2024-02-28T00:00:39;4.70;99.90
45945;DHT22;31655;48.972;10.686;2024-02-28T00:03:06;4.70;99.90
45945;DHT22;31655;48.972;10.686;2024-02-28T00:05:32;4.70;99.90
45945;DHT22;31655;48.972;10.686;2024-02-28T00:07:58;4.70;99.90
45945;DHT22;31655;48.972;10.686;2024-02-28T00:10:25;5.50;99.90
45945;DHT22;31655;48.972;10.686;2024-02-28T00:12:57;4.70;99.90
45945;DHT22;31655;48.972;10.686;2024-02-28T00:17:52;4.60;99.90
45945;DHT22;31655;48.972;10.686;2024-02-28T00:20:19;4.50;99.90
45945;DHT22;31655;48.972;10.686;2024-02-28T00:22:49;4.40;99.90
45945;DHT22;31655;48.972;10.686;2024-02-28T00:25:15;4.60;99.90
45945;DHT22;31655;48.972;10.686;2024-02-28T00:27:41;4.60;99.90
45945;DHT22;31655;48.972;10.686;2024-02-28T00:30:07;5.70;99.90
45945;DHT22;31655;48.972;10.686;2024-02-28T00:32:35;4.60;99.90
45945;DHT22;31655;48.972;10.686;2024-02-28T00:35:04;4.60;99.90
45945;DHT22;31655;48.972;10.686;2024-02-28T00:37:30;4.60;99.90
45945;DHT22;31655;48.972;10.686;2024-02-28T00:39:56;4.50;99.90
45945;DHT22;31655;48.972;10.686;2024-02-28T00:42:24;4.50;99.90
45945;DHT22;31655;48.972;10.686;2024-02-28T00:44:49;4.50;99.90
45945;DHT22;31655;48.972;10.686;2024-02-28T00:47:15;4.50;99.90
45945;DHT22;31655;48.972;10.686;2024-02-28T00:49:41;4.50;99.90
45945;DHT22;31655;48.972;10.686;2024-02-28T00:59:26;4.50;99.90
45945;DHT22;31655;48.972;10.686;2024-02-28T01:04:21;4.50;99.90
45945;DHT22;31655;48.972;10.686;2024-02-28T01:09:13;4.50;99.90
45945;DHT22;31655;48.972;10.686;2024-02-28T01:11:38;5.00;99.90
45945;DHT22;31655;48.972;10.686;2024-02-28T01:14:05;4.40;99.90
45945;DHT22;31655;48.972;10.686;2024-02-28T01:16:32;7.80;99.90
45945;DHT22;31655;48.972;10.686;2024-02-28T01:18:57;4.50;99.90
45945;DHT22;31655;48.972;10.686;2024-02-28T01:21:41;4.40;99.90
45945;DHT22;31655;48.972;10.686;2024-02-28T01:24:41;4.40;99.90
45945;DHT22;31655;48.972;10.686;2024-02-28T01:27:35;4.40;99.90
45945;DHT22;31655;48.972;10.686;2024-02-28T01:30:02;4.40;99.90
45945;DHT22;31655;48.972;10.686;2024-02-28T01:32:29;4.30;99.90
45945;DHT22;31655;48.972;10.686;2024-02-28T01:34:55;4.30;99.90
45945;DHT22;31655;48.972;10.686;2024-02-28T01:37:20;4.30;99.90
45945;DHT22;31655;48.972;10.686;2024-02-28T01:39:47;4.40;99.90
45945;DHT22;31655;48.972;10.686;2024-02-28T01:42:33;4.60;99.90
45945;DHT22;31655;48.972;10.686;2024-02-28T01:45:00;4.90;99.90
45945;DHT22;31655;48.972;10.686;2024-02-28T01:47:34;4.40;99.90
45945;DHT22;31655;48.972;10.686;2024-02-28T01:50:36;4.60;99.90
45945;DHT22;31655;48.972;10.686;2024-02-28T01:53:17;4.40;99.90
45945;DHT22;31655;48.972;10.686;2024-02-28T01:55:43;4.40;99.90
45945;DHT22;31655;48.972;10.686;2024-02-28T01:58:09;4.40;99.90
45945;DHT22;31655;48.972;10.686;2024-02-28T02:00:36;4.30;99.90
45945;DHT22;31655;48.972;10.686;2024-02-28T02:03:02;4.30;99.90
45945;DHT22;31655;48.972;10.686;2024-02-28T02:05:29;4.30;99.90
45945;DHT22;31655;48.972;10.686;2024-02-28T02:07:55;4.30;99.90
45945;DHT22;31655;48.972;10.686;2024-02-28T02:10:22;4.30;99.90
45945;DHT22;31655;48.972;10.686;2024-02-28T02:12:48;4.30;99.90
45945;DHT22;31655;48.972;10.686;2024-02-28T02:15:14;4.30;99.90
45945;DHT22;31655;48.972;10.686;2024-02-28T02:17:39;4.30;99.90
45945;DHT22;31655;48.972;10.686;2024-02-28T02:20:06;4.40;99.90
45945;DHT22;31655;48.972;10.686;2024-02-28T02:22:39;4.40;99.90
45945;DHT22;31655;48.972;10.686;2024-02-28T02:25:05;4.40;99.90
45945;DHT22;31655;48.972;10.686;2024-02-28T02:27:30;4.30;99.90
45945;DHT22;31655;48.972;10.686;2024-02-28T02:29:56;4.30;99.90
45945;DHT22;31655;48.972;10.686;2024-02-28T02:32:22;4.30;99.90
45945;DHT22;31655;48.972;10.686;2024-02-28T02:34:47;4.30;99.90
45945;DHT22;31655;48.972;10.686;2024-02-28T02:37:13;4.30;99.90
45945;DHT22;31655;48.972;10.686;2024-02-28T02:39:38;5.60;99.90
45945;DHT22;31655;48.972;10.686;2024-02-28T02:42:04;4.20;99.90
45945;DHT22;31655;48.972;10.686;2024-02-28T02:44:30;4.20;99.90
45945;DHT22;31655;48.972;10.686;2024-02-28T02:46:55;4.20;99.90
45945;DHT22;31655;48.972;10.686;2024-02-28T02:49:21;4.20;99.90
45945;DHT22;31655;48.972;10.686;2024-02-28T02:51:46;4.20;99.90
45945;DHT22;31655;48.972;10.686;2024-02-28T02:54:12;4.20;99.90
45945;DHT22;31655;48.972;10.686;2024-02-28T02:56:41;4.20;99.90
45945;DHT22;31655;48.972;10.686;2024-02-28T02:59:07;4.20;99.90
45945;DHT22;31655;48.972;10.686;2024-02-28T03:01:32;4.20;99.90
45945;DHT22;31655;48.972;10.686;2024-02-28T03:03:58;4.20;99.90
45945;DHT22;31655;48.972;10.686;2024-02-28T03:06:23;4.20;99.90
45945;DHT22;31655;48.972;10.686;2024-02-28T03:08:49;4.10;99.90
45945;DHT22;31655;48.972;10.686;2024-02-28T03:11:15;4.10;99.90
45945;DHT22;31655;48.972;10.686;2024-02-28T03:13:40;4.10;99.90
45945;DHT22;31655;48.972;10.686;2024-02-28T03:16:06;4.10;99.90
45945;DHT22;31655;48.972;10.686;2024-02-28T03:18:32;4.10;99.90
45945;DHT22;31655;48.972;10.686;2024-02-28T03:20:57;4.10;99.90
45945;DHT22;31655;48.972;10.686;2024-02-28T03:23:23;4.20;99.90
45945;DHT22;31655;48.972;10.686;2024-02-28T03:25:48;4.10;99.90
45945;DHT22;31655;48.972;10.686;2024-02-28T03:28:14;4.10;99.90
45945;DHT22;31655;48.972;10.686;2024-02-28T03:30:40;4.30;99.90
45945;DHT22;31655;48.972;10.686;2024-02-28T03:33:05;4.10;99.90
45945;DHT22;31655;48.972;10.686;2024-02-28T03:35:31;3.40;99.90
45945;DHT22;31655;48.972;10.686;2024-02-28T03:37:56;4.20;99.90
45945;DHT22;31655;48.972;10.686;2024-02-28T03:40:22;4.10;99.90
45945;DHT22;31655;48.972;10.686;2024-02-28T03:42:47;4.10;99.90
45945;DHT22;31655;48.972;10.686;2024-02-28T03:45:13;4.10;99.90
45945;DHT22;31655;48.972;10.686;2024-02-28T03:47:38;4.10;99.90
45945;DHT22;31655;48.972;10.686;2024-02-28T03:50:06;4.10;99.90
45945;DHT22;31655;48.972;10.686;2024-02-28T03:52:31;4.10;99.90
45945;DHT22;31655;48.972;10.686;2024-02-28T03:54:57;4.00;99.90
45945;DHT22;31655;48.972;10.686;2024-02-28T03:57:23;4.10;99.90
45945;DHT22;31655;48.972;10.686;2024-02-28T03:59:48;4.20;99.90
45945;DHT22;31655;48.972;10.686;2024-02-28T04:02:14;4.10;99.90
45945;DHT22;31655;48.972;10.686;2024-02-28T04:04:39;4.10;99.90
45945;DHT22;31655;48.972;10.686;2024-02-28T04:07:05;4.10;99.90
45945;DHT22;31655;48.972;10.686;2024-02-28T04:09:31;4.00;99.90
45945;DHT22;31655;48.972;10.686;2024-02-28T04:11:57;4.00;99.90
45945;DHT22;31655;48.972;10.686;2024-02-28T04:14:22;3.90;99.90
45945;DHT22;31655;48.972;10.686;2024-02-28T04:16:48;4.20;99.90
45945;DHT22;31655;48.972;10.686;2024-02-28T04:19:16;3.90;99.90
45945;DHT22;31655;48.972;10.686;2024-02-28T04:21:41;4.00;99.90
45945;DHT22;31655;48.972;10.686;2024-02-28T04:24:08;3.90;99.90
45945;DHT22;31655;48.972;10.686;2024-02-28T04:26:35;3.90;99.90
45945;DHT22;31655;48.972;10.686;2024-02-28T04:29:01;4.00;99.90
45945;DHT22;31655;48.972;10.686;2024-02-28T04:31:30;3.90;99.90
45945;DHT22;31655;48.972;10.686;2024-02-28T04:33:56;3.90;99.90
45945;DHT22;31655;48.972;10.686;2024-02-28T04:36:22;3.90;99.90
45945;DHT22;31655;48.972;10.686;2024-02-28T04:38:48;4.00;99.90
45945;DHT22;31655;48.972;10.686;2024-02-28T04:41:13;3.90;99.90
45945;DHT22;31655;48.972;10.686;2024-02-28T04:43:39;3.90;99.90
45945;DHT22;31655;48.972;10.686;2024-02-28T04:46:05;3.80;99.90
45945;DHT22;31655;48.972;10.686;2024-02-28T04:48:31;3.90;99.90
45945;DHT22;31655;48.972;10.686;2024-02-28T04:50:57;3.70;99.90
45945;DHT22;31655;48.972;10.686;2024-02-28T04:53:22;3.80;99.90
45945;DHT22;31655;48.972;10.686;2024-02-28T04:55:48;3.80;99.90
45945;DHT22;31655;48.972;10.686;2024-02-28T04:58:15;3.80;99.90
45945;DHT22;31655;48.972;10.686;2024-02-28T05:00:40;3.80;99.90
45945;DHT22;31655;48.972;10.686;2024-02-28T05:03:06;3.80;99.90
45945;DHT22;31655;48.972;10.686;2024-02-28T05:05:34;3.80;99.90
45945;DHT22;31655;48.972;10.686;2024-02-28T05:08:00;3.80;99.90
45945;DHT22;31655;48.972;10.686;2024-02-28T05:10:25;3.80;99.90
45945;DHT22;31655;48.972;10.686;2024-02-28T05:12:51;3.80;99.90
45945;DHT22;31655;48.972;10.686;2024-02-28T05:15:16;3.80;99.90
45945;DHT22;31655;48.972;10.686;2024-02-28T05:17:45;3.90;99.90
45945;DHT22;31655;48.972;10.686;2024-02-28T05:20:11;3.90;99.90
45945;DHT22;31655;48.972;10.686;2024-02-28T05:22:40;3.90;99.90
45945;DHT22;31655;48.972;10.686;2024-02-28T05:25:08;3.90;99.90
45945;DHT22;31655;48.972;10.686;2024-02-28T05:27:33;3.90;99.90
45945;DHT22;31655;48.972;10.686;2024-02-28T05:29:59;3.90;99.90
45945;DHT22;31655;48.972;10.686;2024-02-28T05:32:26;3.80;99.90
45945;DHT22;31655;48.972;10.686;2024-02-28T05:34:53;3.80;99.90
45945;DHT22;31655;48.972;10.686;2024-02-28T05:37:20;3.80;99.90
45945;DHT22;31655;48.972;10.686;2024-02-28T05:39:46;6.50;99.90
45945;DHT22;31655;48.972;10.686;2024-02-28T05:42:13;3.70;99.90
45945;DHT22;31655;48.972;10.686;2024-02-28T05:47:12;3.80;99.90
45945;DHT22;31655;48.972;10.686;2024-02-28T05:49:38;3.80;99.90
45945;DHT22;31655;48.972;10.686;2024-02-28T05:52:04;3.80;99.90
45945;DHT22;31655;48.972;10.686;2024-02-28T05:54:30;3.80;99.90
45945;DHT22;31655;48.972;10.686;2024-02-28T05:56:56;3.80;99.90
45945;DHT22;31655;48.972;10.686;2024-02-28T05:59:22;3.80;99.90
45945;DHT22;31655;48.972;10.686;2024-02-28T06:01:47;3.80;99.90
45945;DHT22;31655;48.972;10.686;2024-02-28T06:04:13;4.70;99.90
45945;DHT22;31655;48.972;10.686;2024-02-28T06:06:41;3.80;99.90
45945;DHT22;31655;48.972;10.686;2024-02-28T06:09:07;3.80;99.90
45945;DHT22;31655;48.972;10.686;2024-02-28T06:11:33;3.80;99.90
45945;DHT22;31655;48.972;10.686;2024-02-28T06:13:59;3.80;99.90
45945;DHT22;31655;48.972;10.686;2024-02-28T06:16:24;3.70;99.90
45945;DHT22;31655;48.972;10.686;2024-02-28T06:18:50;3.70;99.90
45945;DHT22;31655;48.972;10.686;2024-02-28T06:21:16;3.60;99.90
45945;DHT22;31655;48.972;10.686;2024-02-28T06:23:43;3.70;99.90
45945;DHT22;31655;48.972;10.686;2024-02-28T06:26:08;3.70;99.90
45945;DHT22;31655;48.972;10.686;2024-02-28T06:28:41;3.80;99.90
45945;DHT22;31655;48.972;10.686;2024-02-28T06:31:16;3.80;99.90
45945;DHT22;31655;48.972;10.686;2024-02-28T06:33:42;3.80;99.90
45945;DHT22;31655;48.972;10.686;2024-02-28T06:36:11;3.70;99.90
45945;DHT22;31655;48.972;10.686;2024-02-28T06:39:35;3.60;99.90
45945;DHT22;31655;48.972;10.686;2024-02-28T06:42:01;3.70;99.90
45945;DHT22;31655;48.972;10.686;2024-02-28T06:44:26;3.60;99.90
45945;DHT22;31655;48.972;10.686;2024-02-28T06:46:52;3.70;99.90
45945;DHT22;31655;48.972;10.686;2024-02-28T06:49:18;3.70;99.90
45945;DHT22;31655;48.972;10.686;2024-02-28T06:51:44;3.70;99.90
45945;DHT22;31655;48.972;10.686;2024-02-28T06:54:09;3.70;99.90
45945;DHT22;31655;48.972;10.686;2024-02-28T06:56:36;3.70;99.90
45945;DHT22;31655;48.972;10.686;2024-02-28T07:01:30;3.90;99.90
45945;DHT22;31655;48.972;10.686;2024-02-28T07:03:56;4.00;99.90
45945;DHT22;31655;48.972;10.686;2024-02-28T07:06:25;3.90;99.90
45945;DHT22;31655;48.972;10.686;2024-02-28T07:09:14;4.00;99.90
45945;DHT22;31655;48.972;10.686;2024-02-28T07:11:40;4.00;99.90
45945;DHT22;31655;48.972;10.686;2024-02-28T07:14:06;3.90;99.90
45945;DHT22;31655;48.972;10.686;2024-02-28T07:16:31;4.00;99.90
45945;DHT22;31655;48.972;10.686;2024-02-28T07:18:59;4.10;99.90
45945;DHT22;31655;48.972;10.686;2024-02-28T07:21:25;4.10;99.90
45945;DHT22;31655;48.972;10.686;2024-02-28T07:23:51;4.10;99.90
45945;DHT22;31655;48.972;10.686;2024-02-28T07:26:16;4.00;99.90
45945;DHT22;31655;48.972;10.686;2024-02-28T07:28:42;4.00;99.90
45945;DHT22;31655;48.972;10.686;2024-02-28T07:31:17;4.10;99.90
45945;DHT22;31655;48.972;10.686;2024-02-28T07:33:43;4.20;99.90
45945;DHT22;31655;48.972;10.686;2024-02-28T07:36:15;4.20;99.90
45945;DHT22;31655;48.972;10.686;2024-02-28T07:38:41;4.20;99.90
45945;DHT22;31655;48.972;10.686;2024-02-28T07:41:07;4.20;99.90
45945;DHT22;31655;48.972;10.686;2024-02-28T07:43:36;4.20;99.90
45945;DHT22;31655;48.972;10.686;2024-02-28T07:46:08;4.20;99.90
45945;DHT22;31655;48.972;10.686;2024-02-28T07:48:35;4.20;99.90
45945;DHT22;31655;48.972;10.686;2024-02-28T07:51:00;4.30;99.90
45945;DHT22;31655;48.972;10.686;2024-02-28T07:53:27;4.30;99.90
45945;DHT22;31655;48.972;10.686;2024-02-28T07:55:55;4.30;99.90
45945;DHT22;31655;48.972;10.686;2024-02-28T07:58:21;4.30;99.90
45945;DHT22;31655;48.972;10.686;2024-02-28T08:00:47;4.30;99.90
45945;DHT22;31655;48.972;10.686;2024-02-28T08:03:12;4.40;99.90
45945;DHT22;31655;48.972;10.686;2024-02-28T08:05:38;4.40;99.90
45945;DHT22;31655;48.972;10.686;2024-02-28T08:08:08;4.50;99.90
45945;DHT22;31655;48.972;10.686;2024-02-28T08:10:34;4.60;99.90
45945;DHT22;31655;48.972;10.686;2024-02-28T08:13:04;4.50;99.90
45945;DHT22;31655;48.972;10.686;2024-02-28T08:15:29;4.50;99.90
45945;DHT22;31655;48.972;10.686;2024-02-28T08:17:55;4.60;99.90
45945;DHT22;31655;48.972;10.686;2024-02-28T08:20:21;4.50;99.90
45945;DHT22;31655;48.972;10.686;2024-02-28T08:22:46;4.70;99.90
45945;DHT22;31655;48.972;10.686;2024-02-28T08:25:12;4.70;99.90
45945;DHT22;31655;48.972;10.686;2024-02-28T08:27:39;4.70;99.90
45945;DHT22;31655;48.972;10.686;2024-02-28T08:30:05;4.70;99.90
45945;DHT22;31655;48.972;10.686;2024-02-28T08:32:32;4.80;99.90
45945;DHT22;31655;48.972;10.686;2024-02-28T08:34:58;4.80;99.90
45945;DHT22;31655;48.972;10.686;2024-02-28T08:37:24;4.90;99.90
45945;DHT22;31655;48.972;10.686;2024-02-28T08:39:50;4.80;99.90
45945;DHT22;31655;48.972;10.686;2024-02-28T08:42:15;4.70;99.90
45945;DHT22;31655;48.972;10.686;2024-02-28T08:44:41;4.70;99.90
45945;DHT22;31655;48.972;10.686;2024-02-28T08:47:06;4.70;99.90
45945;DHT22;31655;48.972;10.686;2024-02-28T08:49:34;4.80;99.90
45945;DHT22;31655;48.972;10.686;2024-02-28T08:52:00;4.80;99.90
45945;DHT22;31655;48.972;10.686;2024-02-28T08:54:26;4.90;99.90
45945;DHT22;31655;48.972;10.686;2024-02-28T08:56:52;5.00;99.90
45945;DHT22;31655;48.972;10.686;2024-02-28T08:59:17;5.20;99.90
45945;DHT22;31655;48.972;10.686;2024-02-28T09:01:43;5.40;99.90
45945;DHT22;31655;48.972;10.686;2024-02-28T09:04:08;5.30;99.90
45945;DHT22;31655;48.972;10.686;2024-02-28T09:06:34;5.50;99.90
45945;DHT22;31655;48.972;10.686;2024-02-28T09:08:59;5.40;99.90
45945;DHT22;31655;48.972;10.686;2024-02-28T09:11:25;5.40;99.90
45945;DHT22;31655;48.972;10.686;2024-02-28T09:13:51;5.40;99.90
45945;DHT22;31655;48.972;10.686;2024-02-28T09:16:17;5.60;99.90
45945;DHT22;31655;48.972;10.686;2024-02-28T09:18:43;5.60;99.90
45945;DHT22;31655;48.972;10.686;2024-02-28T09:21:08;5.50;99.90
45945;DHT22;31655;48.972;10.686;2024-02-28T09:23:35;5.40;99.90
45945;DHT22;31655;48.972;10.686;2024-02-28T09:26:04;5.40;99.90
45945;DHT22;31655;48.972;10.686;2024-02-28T09:28:31;5.40;99.90
45945;DHT22;31655;48.972;10.686;2024-02-28T09:30:57;5.50;99.90
45945;DHT22;31655;48.972;10.686;2024-02-28T09:33:23;7.70;99.90
45945;DHT22;31655;48.972;10.686;2024-02-28T09:35:48;5.50;99.90
45945;DHT22;31655;48.972;10.686;2024-02-28T09:38:14;5.60;99.90
45945;DHT22;31655;48.972;10.686;2024-02-28T09:40:40;5.60;99.90
45945;DHT22;31655;48.972;10.686;2024-02-28T09:43:08;7.20;99.90
45945;DHT22;31655;48.972;10.686;2024-02-28T09:45:39;5.50;99.90
45945;DHT22;31655;48.972;10.686;2024-02-28T09:48:06;5.50;99.90
45945;DHT22;31655;48.972;10.686;2024-02-28T09:50:32;5.50;99.90
45945;DHT22;31655;48.972;10.686;2024-02-28T09:52:59;5.50;99.90
45945;DHT22;31655;48.972;10.686;2024-02-28T09:55:24;5.50;99.90
45945;DHT22;31655;48.972;10.686;2024-02-28T09:57:50;5.40;99.90
45945;DHT22;31655;48.972;10.686;2024-02-28T10:00:19;5.40;99.90
45945;DHT22;31655;48.972;10.686;2024-02-28T10:02:47;5.50;99.90
45945;DHT22;31655;48.972;10.686;2024-02-28T10:05:14;5.60;99.90
45945;DHT22;31655;48.972;10.686;2024-02-28T10:07:39;5.60;99.90
45945;DHT22;31655;48.972;10.686;2024-02-28T10:10:06;5.70;99.90
45945;DHT22;31655;48.972;10.686;2024-02-28T10:12:33;5.70;99.90
45945;DHT22;31655;48.972;10.686;2024-02-28T10:15:00;5.80;99.90
45945;DHT22;31655;48.972;10.686;2024-02-28T10:17:26;5.80;99.90
45945;DHT22;31655;48.972;10.686;2024-02-28T10:19:52;5.80;99.90
45945;DHT22;31655;48.972;10.686;2024-02-28T10:22:17;5.90;99.90
45945;DHT22;31655;48.972;10.686;2024-02-28T10:24:43;5.90;99.90
45945;DHT22;31655;48.972;10.686;2024-02-28T10:27:09;6.00;99.90
45945;DHT22;31655;48.972;10.686;2024-02-28T10:29:34;6.10;99.90
45945;DHT22;31655;48.972;10.686;2024-02-28T10:32:00;6.10;99.90
45945;DHT22;31655;48.972;10.686;2024-02-28T10:34:28;6.10;99.90
45945;DHT22;31655;48.972;10.686;2024-02-28T10:36:56;6.20;99.90
45945;DHT22;31655;48.972;10.686;2024-02-28T10:39:22;6.30;99.90
45945;DHT22;31655;48.972;10.686;2024-02-28T10:41:50;6.30;99.90
45945;DHT22;31655;48.972;10.686;2024-02-28T10:44:16;6.20;99.90
45945;DHT22;31655;48.972;10.686;2024-02-28T10:46:43;6.30;99.90
45945;DHT22;31655;48.972;10.686;2024-02-28T10:49:09;6.20;99.90
45945;DHT22;31655;48.972;10.686;2024-02-28T10:51:36;6.20;99.90
45945;DHT22;31655;48.972;10.686;2024-02-28T10:54:09;6.10;99.90
45945;DHT22;31655;48.972;10.686;2024-02-28T10:56:40;6.30;99.90
45945;DHT22;31655;48.972;10.686;2024-02-28T10:59:07;6.40;99.90
45945;DHT22;31655;48.972;10.686;2024-02-28T11:01:38;6.40;99.90
45945;DHT22;31655;48.972;10.686;2024-02-28T11:04:07;7.10;99.90
45945;DHT22;31655;48.972;10.686;2024-02-28T11:06:33;6.30;99.90
45945;DHT22;31655;48.972;10.686;2024-02-28T11:09:00;6.40;99.90
45945;DHT22;31655;48.972;10.686;2024-02-28T11:11:30;6.30;99.90
45945;DHT22;31655;48.972;10.686;2024-02-28T11:13:57;6.40;99.90
45945;DHT22;31655;48.972;10.686;2024-02-28T11:16:34;6.60;99.90
45945;DHT22;31655;48.972;10.686;2024-02-28T11:19:02;6.60;99.90
45945;DHT22;31655;48.972;10.686;2024-02-28T11:21:29;6.70;99.90
45945;DHT22;31655;48.972;10.686;2024-02-28T11:23:59;6.70;99.90
45945;DHT22;31655;48.972;10.686;2024-02-28T11:26:25;6.80;99.90
45945;DHT22;31655;48.972;10.686;2024-02-28T11:28:51;6.80;99.90
45945;DHT22;31655;48.972;10.686;2024-02-28T11:31:17;6.80;99.90
45945;DHT22;31655;48.972;10.686;2024-02-28T11:33:44;6.80;99.90
45945;DHT22;31655;48.972;10.686;2024-02-28T11:36:11;7.00;99.90
45945;DHT22;31655;48.972;10.686;2024-02-28T11:38:38;7.10;99.90
45945;DHT22;31655;48.972;10.686;2024-02-28T11:41:04;7.20;99.90
45945;DHT22;31655;48.972;10.686;2024-02-28T11:43:31;7.20;99.90
45945;DHT22;31655;48.972;10.686;2024-02-28T11:45:58;7.30;99.90
45945;DHT22;31655;48.972;10.686;2024-02-28T11:48:25;9.80;99.90
45945;DHT22;31655;48.972;10.686;2024-02-28T11:50:51;7.50;99.90
45945;DHT22;31655;48.972;10.686;2024-02-28T11:53:17;7.50;99.90
45945;DHT22;31655;48.972;10.686;2024-02-28T11:55:42;7.50;99.90
45945;DHT22;31655;48.972;10.686;2024-02-28T11:58:08;7.60;99.90
45945;DHT22;31655;48.972;10.686;2024-02-28T12:00:50;7.60;99.90
45945;DHT22;31655;48.972;10.686;2024-02-28T12:03:25;7.20;99.90
45945;DHT22;31655;48.972;10.686;2024-02-28T12:05:52;7.30;99.90
45945;DHT22;31655;48.972;10.686;2024-02-28T12:08:19;7.20;99.90
45945;DHT22;31655;48.972;10.686;2024-02-28T12:10:49;7.20;99.90
45945;DHT22;31655;48.972;10.686;2024-02-28T12:13:37;7.00;99.90
45945;DHT22;31655;48.972;10.686;2024-02-28T12:16:03;7.10;99.90
45945;DHT22;31655;48.972;10.686;2024-02-28T12:18:29;7.10;99.90
45945;DHT22;31655;48.972;10.686;2024-02-28T12:20:55;7.20;99.90
45945;DHT22;31655;48.972;10.686;2024-02-28T12:23:20;7.10;99.90
45945;DHT22;31655;48.972;10.686;2024-02-28T12:25:46;7.10;99.90
45945;DHT22;31655;48.972;10.686;2024-02-28T12:28:12;7.00;99.90
45945;DHT22;31655;48.972;10.686;2024-02-28T12:30:42;6.90;99.90
45945;DHT22;31655;48.972;10.686;2024-02-28T12:33:08;6.80;99.90
45945;DHT22;31655;48.972;10.686;2024-02-28T12:35:34;6.90;99.90
45945;DHT22;31655;48.972;10.686;2024-02-28T12:38:00;6.90;99.90
45945;DHT22;31655;48.972;10.686;2024-02-28T12:40:25;6.80;99.90
45945;DHT22;31655;48.972;10.686;2024-02-28T12:42:51;6.80;99.90
45945;DHT22;31655;48.972;10.686;2024-02-28T12:45:16;6.80;99.90
45945;DHT22;31655;48.972;10.686;2024-02-28T12:47:43;6.80;99.90
45945;DHT22;31655;48.972;10.686;2024-02-28T12:50:08;6.90;99.90
45945;DHT22;31655;48.972;10.686;2024-02-28T12:52:35;7.10;99.90
45945;DHT22;31655;48.972;10.686;2024-02-28T12:55:00;7.20;99.90
45945;DHT22;31655;48.972;10.686;2024-02-28T12:57:26;7.30;99.90
45945;DHT22;31655;48.972;10.686;2024-02-28T12:59:51;7.20;99.90
45945;DHT22;31655;48.972;10.686;2024-02-28T13:02:17;7.50;99.90
45945;DHT22;31655;48.972;10.686;2024-02-28T13:04:45;7.60;99.90
45945;DHT22;31655;48.972;10.686;2024-02-28T13:07:10;7.70;99.90
45945;DHT22;31655;48.972;10.686;2024-02-28T13:09:36;7.60;99.90
45945;DHT22;31655;48.972;10.686;2024-02-28T13:12:03;9.00;99.90
45945;DHT22;31655;48.972;10.686;2024-02-28T13:14:30;7.60;99.90
45945;DHT22;31655;48.972;10.686;2024-02-28T13:16:55;7.60;99.90
45945;DHT22;31655;48.972;10.686;2024-02-28T13:19:21;7.30;99.90
45945;DHT22;31655;48.972;10.686;2024-02-28T13:21:46;7.40;99.90
45945;DHT22;31655;48.972;10.686;2024-02-28T13:24:12;7.30;99.90
45945;DHT22;31655;48.972;10.686;2024-02-28T13:26:40;7.20;99.90
45945;DHT22;31655;48.972;10.686;2024-02-28T13:29:06;7.10;99.90
45945;DHT22;31655;48.972;10.686;2024-02-28T13:31:33;7.00;99.90
45945;DHT22;31655;48.972;10.686;2024-02-28T13:33:58;7.10;99.90
45945;DHT22;31655;48.972;10.686;2024-02-28T13:36:24;7.10;99.90
45945;DHT22;31655;48.972;10.686;2024-02-28T13:38:50;7.10;99.90
45945;DHT22;31655;48.972;10.686;2024-02-28T13:41:15;7.20;99.90
45945;DHT22;31655;48.972;10.686;2024-02-28T13:43:41;7.10;99.90
45945;DHT22;31655;48.972;10.686;2024-02-28T13:46:07;7.00;99.90
45945;DHT22;31655;48.972;10.686;2024-02-28T13:48:33;6.90;99.90
45945;DHT22;31655;48.972;10.686;2024-02-28T13:50:59;6.90;99.90
45945;DHT22;31655;48.972;10.686;2024-02-28T13:53:25;6.70;99.90
45945;DHT22;31655;48.972;10.686;2024-02-28T13:55:52;6.70;99.90
45945;DHT22;31655;48.972;10.686;2024-02-28T13:58:17;6.60;99.90
45945;DHT22;31655;48.972;10.686;2024-02-28T14:00:44;6.50;99.90
45945;DHT22;31655;48.972;10.686;2024-02-28T14:03:10;6.60;99.90
45945;DHT22;31655;48.972;10.686;2024-02-28T14:05:36;6.50;99.90
45945;DHT22;31655;48.972;10.686;2024-02-28T14:08:02;6.50;99.90
45945;DHT22;31655;48.972;10.686;2024-02-28T14:10:33;6.50;99.90
45945;DHT22;31655;48.972;10.686;2024-02-28T14:12:59;6.50;99.90
45945;DHT22;31655;48.972;10.686;2024-02-28T14:15:25;6.60;99.90
45945;DHT22;31655;48.972;10.686;2024-02-28T14:17:51;6.40;99.90
45945;DHT22;31655;48.972;10.686;2024-02-28T14:20:17;6.40;99.90
45945;DHT22;31655;48.972;10.686;2024-02-28T14:22:42;6.40;99.90
45945;DHT22;31655;48.972;10.686;2024-02-28T14:25:12;6.40;99.90
45945;DHT22;31655;48.972;10.686;2024-02-28T14:27:43;6.30;99.90
45945;DHT22;31655;48.972;10.686;2024-02-28T14:30:09;6.40;99.90
45945;DHT22;31655;48.972;10.686;2024-02-28T14:32:36;6.40;99.90
45945;DHT22;31655;48.972;10.686;2024-02-28T14:35:03;6.40;99.90
45945;DHT22;31655;48.972;10.686;2024-02-28T14:37:28;6.50;99.90
45945;DHT22;31655;48.972;10.686;2024-02-28T14:39:54;6.50;99.90
45945;DHT22;31655;48.972;10.686;2024-02-28T14:42:20;6.50;99.90
45945;DHT22;31655;48.972;10.686;2024-02-28T14:44:45;6.60;99.90
45945;DHT22;31655;48.972;10.686;2024-02-28T14:47:11;6.60;99.90
45945;DHT22;31655;48.972;10.686;2024-02-28T14:49:36;6.50;99.90
45945;DHT22;31655;48.972;10.686;2024-02-28T14:52:03;6.40;99.90
45945;DHT22;31655;48.972;10.686;2024-02-28T14:54:29;6.50;99.90
45945;DHT22;31655;48.972;10.686;2024-02-28T14:56:55;6.50;99.90
45945;DHT22;31655;48.972;10.686;2024-02-28T14:59:20;6.40;99.90
45945;DHT22;31655;48.972;10.686;2024-02-28T15:01:49;6.50;99.90
45945;DHT22;31655;48.972;10.686;2024-02-28T15:04:14;6.50;99.90
45945;DHT22;31655;48.972;10.686;2024-02-28T15:06:41;6.60;99.90
45945;DHT22;31655;48.972;10.686;2024-02-28T15:09:07;6.60;99.90
45945;DHT22;31655;48.972;10.686;2024-02-28T15:11:32;6.60;99.90
45945;DHT22;31655;48.972;10.686;2024-02-28T15:13:58;6.70;99.90
45945;DHT22;31655;48.972;10.686;2024-02-28T15:16:24;6.70;99.90
45945;DHT22;31655;48.972;10.686;2024-02-28T15:18:50;6.70;99.90
45945;DHT22;31655;48.972;10.686;2024-02-28T15:21:15;6.90;99.90
45945;DHT22;31655;48.972;10.686;2024-02-28T15:23:41;6.70;99.90
45945;DHT22;31655;48.972;10.686;2024-02-28T15:26:06;6.60;99.90
45945;DHT22;31655;48.972;10.686;2024-02-28T15:28:32;6.60;99.90
45945;DHT22;31655;48.972;10.686;2024-02-28T15:30:58;6.60;99.90
45945;DHT22;31655;48.972;10.686;2024-02-28T15:33:23;6.60;99.90
45945;DHT22;31655;48.972;10.686;2024-02-28T15:35:49;6.70;99.90
45945;DHT22;31655;48.972;10.686;2024-02-28T15:38:14;6.60;99.90
45945;DHT22;31655;48.972;10.686;2024-02-28T15:40:40;6.50;99.90
45945;DHT22;31655;48.972;10.686;2024-02-28T15:43:05;6.50;99.90
45945;DHT22;31655;48.972;10.686;2024-02-28T15:45:31;6.50;99.90
45945;DHT22;31655;48.972;10.686;2024-02-28T15:47:57;6.40;99.90